createdAt,value
2024-01-28T00:01:23.123Z,97.04
2024-01-28T00:04:03.671Z,97.12
2024-01-28T00:06:31.569Z,97.16
2024-01-28T00:08:59.781Z,97.15
2024-01-28T00:11:27.959Z,97.14
2024-01-28T00:13:55.979Z,97.07
2024-01-28T00:16:23.967Z,97.20
2024-01-28T00:18:59.354Z,97.21
2024-01-28T00:21:28.203Z,97.42
2024-01-28T00:23:57.172Z,97.35
2024-01-28T00:26:25.670Z,97.63
2024-01-28T00:28:53.573Z,97.83
2024-01-28T00:31:21.454Z,97.70
2024-01-28T00:33:49.508Z,97.66
2024-01-28T00:36:17.533Z,97.58
2024-01-28T00:38:45.498Z,97.52
2024-01-28T00:41:31.034Z,97.67
2024-01-28T00:43:59.664Z,97.73
2024-01-28T00:46:27.977Z,97.75
2024-01-28T00:48:56.160Z,97.88
2024-01-28T00:51:24.355Z,97.83
2024-01-28T00:53:52.349Z,97.88
2024-01-28T00:56:20.769Z,97.92
2024-01-28T00:58:48.641Z,97.80
2024-01-28T01:01:16.993Z,97.67
2024-01-28T01:03:44.968Z,97.65
2024-01-28T01:06:12.950Z,97.69
2024-01-28T01:08:40.872Z,97.78
2024-01-28T01:11:09.107Z,97.92
2024-01-28T01:13:36.970Z,97.90
2024-01-28T01:16:05.241Z,98.03
2024-01-28T01:18:33.593Z,98.06
2024-01-28T01:21:01.558Z,98.16
2024-01-28T01:23:30.747Z,98.18
2024-01-28T01:25:58.622Z,98.09
2024-01-28T01:28:32.907Z,98.17
2024-01-28T01:31:05.217Z,98.22
2024-01-28T01:33:33.298Z,98.27
2024-01-28T01:36:01.725Z,98.42
2024-01-28T01:38:30.228Z,98.27
2024-01-28T01:40:59.715Z,98.56
2024-01-28T01:43:27.725Z,98.41
2024-01-28T01:45:55.634Z,98.46
2024-01-28T01:48:23.996Z,98.49
2024-01-28T01:50:52.232Z,98.71
2024-01-28T01:53:20.193Z,98.69
2024-01-28T01:55:48.145Z,98.78
2024-01-28T01:58:16.199Z,98.88
2024-01-28T02:00:44.619Z,98.95
2024-01-28T02:03:13.320Z,99.22
2024-01-28T02:05:41.838Z,99.28
2024-01-28T02:08:09.831Z,99.24
2024-01-28T02:10:37.769Z,99.55
2024-01-28T02:13:05.896Z,99.69
2024-01-28T02:15:40.471Z,99.59
2024-01-28T02:18:08.774Z,99.66
2024-01-28T02:20:37.010Z,99.78
2024-01-28T02:23:06.104Z,99.93
2024-01-28T02:25:34.303Z,99.96
2024-01-28T02:28:02.255Z,100.00
2024-01-28T02:30:30.262Z,99.92
2024-01-28T02:32:58.430Z,99.98
2024-01-28T02:35:26.672Z,100.00
2024-01-28T02:37:54.595Z,100.00
2024-01-28T02:40:22.565Z,100.00
2024-01-28T02:42:50.793Z,99.99
2024-01-28T02:45:19.481Z,99.98
2024-01-28T02:47:47.383Z,99.98
2024-01-28T02:50:15.317Z,99.98
2024-01-28T02:52:43.163Z,100.00
2024-01-28T02:55:11.123Z,99.99
2024-01-28T02:57:39.013Z,99.99
2024-01-28T03:00:07.728Z,100.00
2024-01-28T03:02:38.188Z,99.98
2024-01-28T03:05:06.906Z,100.00
2024-01-28T03:07:34.893Z,99.95
2024-01-28T03:10:02.907Z,99.91
2024-01-28T03:12:30.846Z,99.91
2024-01-28T03:14:58.992Z,99.98
2024-01-28T03:17:26.941Z,99.85
2024-01-28T03:19:55.085Z,99.92
2024-01-28T03:22:23.498Z,99.95
2024-01-28T03:24:52.861Z,99.99
2024-01-28T03:27:20.882Z,99.99
2024-01-28T03:29:48.731Z,100.00
2024-01-28T03:32:17.098Z,99.94
2024-01-28T03:34:45.241Z,100.00
2024-01-28T03:37:13.607Z,99.93
2024-01-28T03:39:41.668Z,100.00
2024-01-28T03:42:11.234Z,99.97
2024-01-28T03:44:39.129Z,100.00
2024-01-28T03:47:06.993Z,100.00
2024-01-28T03:49:35.226Z,100.00
2024-01-28T03:52:03.270Z,100.00
2024-01-28T03:54:31.278Z,100.00
2024-01-28T03:56:59.167Z,100.00
2024-01-28T03:59:28.498Z,100.00
2024-01-28T04:01:56.502Z,100.00
2024-01-28T04:04:24.649Z,100.00
2024-01-28T04:06:53.280Z,100.00
2024-01-28T04:09:21.254Z,99.93
2024-01-28T04:11:49.086Z,100.00
2024-01-28T04:14:16.962Z,100.00
2024-01-28T04:16:44.728Z,100.00
2024-01-28T04:19:13.066Z,100.00
2024-01-28T04:21:42.220Z,100.00
2024-01-28T04:24:10.511Z,100.00
2024-01-28T04:26:38.606Z,100.00
2024-01-28T04:29:06.358Z,100.00
2024-01-28T04:31:34.219Z,100.00
2024-01-28T04:34:02.213Z,100.00
2024-01-28T04:36:30.226Z,100.00
2024-01-28T04:38:58.218Z,100.00
2024-01-28T04:41:26.203Z,100.00
2024-01-28T04:43:54.085Z,100.00
2024-01-28T04:46:22.031Z,100.00
2024-01-28T04:48:50.182Z,100.00
2024-01-28T04:51:18.169Z,100.00
2024-01-28T04:53:46.005Z,100.00
2024-01-28T04:56:14.014Z,100.00
2024-01-28T04:58:41.980Z,100.00
2024-01-28T05:01:10.232Z,100.00
2024-01-28T05:03:38.411Z,100.00
2024-01-28T05:06:06.651Z,100.00
2024-01-28T05:08:34.697Z,100.00
2024-01-28T05:11:02.608Z,100.00
2024-01-28T05:13:30.703Z,100.00
2024-01-28T05:15:58.651Z,100.00
2024-01-28T05:18:27.571Z,100.00
2024-01-28T05:20:55.811Z,100.00
2024-01-28T05:23:23.703Z,100.00
2024-01-28T05:25:51.538Z,100.00
2024-01-28T05:28:19.474Z,100.00
2024-01-28T05:30:48.124Z,100.00
2024-01-28T05:33:16.292Z,100.00
2024-01-28T05:35:44.349Z,100.00
2024-01-28T05:38:12.318Z,100.00
2024-01-28T05:40:40.293Z,100.00
2024-01-28T05:43:08.569Z,100.00
2024-01-28T05:45:36.488Z,100.00
2024-01-28T05:48:04.880Z,100.00
2024-01-28T05:50:33.096Z,100.00
2024-01-28T05:53:00.936Z,100.00
2024-01-28T05:55:28.834Z,100.00
2024-01-28T05:57:56.870Z,100.00
2024-01-28T06:00:24.942Z,100.00
2024-01-28T06:02:52.793Z,100.00
2024-01-28T06:05:20.682Z,100.00
2024-01-28T06:07:48.586Z,100.00
2024-01-28T06:10:16.940Z,100.00
2024-01-28T06:12:44.922Z,100.00
2024-01-28T06:15:13.034Z,100.00
2024-01-28T06:17:41.707Z,100.00
2024-01-28T06:20:09.986Z,100.00
2024-01-28T06:22:38.045Z,100.00
2024-01-28T06:25:08.069Z,100.00
2024-01-28T06:27:36.061Z,100.00
2024-01-28T06:30:04.423Z,100.00
2024-01-28T06:32:33.445Z,100.00
2024-01-28T06:35:01.554Z,100.00
2024-01-28T06:37:30.017Z,100.00
2024-01-28T06:39:57.940Z,100.00
2024-01-28T06:42:26.627Z,100.00
2024-01-28T06:44:54.613Z,100.00
2024-01-28T06:47:22.623Z,100.00
2024-01-28T06:49:51.517Z,100.00
2024-01-28T06:52:19.604Z,100.00
2024-01-28T06:54:47.724Z,100.00
2024-01-28T06:57:15.828Z,100.00
2024-01-28T06:59:45.114Z,100.00
2024-01-28T07:02:13.411Z,100.00
2024-01-28T07:04:41.295Z,100.00
2024-01-28T07:07:09.613Z,100.00
2024-01-28T07:09:37.798Z,100.00
2024-01-28T07:12:08.259Z,100.00
2024-01-28T07:14:36.282Z,100.00
2024-01-28T07:17:04.562Z,100.00
2024-01-28T07:19:32.431Z,100.00
2024-01-28T07:22:00.493Z,100.00
2024-01-28T07:24:28.654Z,100.00
2024-01-28T07:26:56.604Z,100.00
2024-01-28T07:29:24.429Z,100.00
2024-01-28T07:31:54.075Z,100.00
2024-01-28T07:34:24.444Z,100.00
2024-01-28T07:36:55.355Z,100.00
2024-01-28T07:39:23.674Z,100.00
2024-01-28T07:41:51.496Z,100.00
2024-01-28T07:44:19.389Z,100.00
2024-01-28T07:46:48.288Z,100.00
2024-01-28T07:49:17.973Z,100.00
2024-01-28T07:51:46.055Z,100.00
2024-01-28T07:54:14.027Z,100.00
2024-01-28T07:56:41.895Z,100.00
2024-01-28T07:59:09.946Z,100.00
2024-01-28T08:01:38.194Z,100.00
2024-01-28T08:04:06.323Z,100.00
2024-01-28T08:06:34.466Z,100.00
2024-01-28T08:09:02.438Z,100.00
2024-01-28T08:11:30.369Z,100.00
2024-01-28T08:13:58.386Z,100.00
2024-01-28T08:16:26.384Z,100.00
2024-01-28T08:18:55.343Z,100.00
2024-01-28T08:21:24.121Z,100.00
2024-01-28T08:23:52.451Z,100.00
2024-01-28T08:26:20.334Z,100.00
2024-01-28T08:28:48.298Z,100.00
2024-01-28T08:31:16.389Z,100.00
2024-01-28T08:33:44.591Z,100.00
2024-01-28T08:36:12.866Z,100.00
2024-01-28T08:38:40.888Z,100.00
2024-01-28T08:41:08.896Z,100.00
2024-01-28T08:43:37.078Z,100.00
2024-01-28T08:46:05.213Z,100.00
2024-01-28T08:48:33.607Z,100.00
2024-01-28T08:51:01.736Z,100.00
2024-01-28T08:53:30.606Z,100.00
2024-01-28T08:55:58.890Z,100.00
2024-01-28T08:58:27.539Z,100.00
2024-01-28T09:00:55.917Z,100.00
2024-01-28T09:03:24.024Z,100.00
2024-01-28T09:05:52.220Z,100.00
2024-01-28T09:08:20.184Z,100.00
2024-01-28T09:10:48.084Z,100.00
2024-01-28T09:13:16.225Z,100.00
2024-01-28T09:15:44.197Z,100.00
2024-01-28T09:18:12.680Z,100.00
2024-01-28T09:20:40.884Z,100.00
2024-01-28T09:23:09.226Z,100.00
2024-01-28T09:25:37.642Z,100.00
2024-01-28T09:28:08.653Z,100.00
2024-01-28T09:30:36.874Z,100.00
2024-01-28T09:33:06.925Z,100.00
2024-01-28T09:35:35.213Z,100.00
2024-01-28T09:38:03.837Z,100.00
2024-01-28T09:40:32.045Z,100.00
2024-01-28T09:43:13.414Z,100.00
2024-01-28T09:45:42.121Z,100.00
2024-01-28T09:48:12.165Z,100.00
2024-01-28T09:50:40.879Z,100.00
2024-01-28T09:53:11.603Z,100.00
2024-01-28T09:55:40.611Z,100.00
2024-01-28T09:58:09.501Z,100.00
2024-01-28T10:00:42.803Z,100.00
2024-01-28T10:03:12.217Z,100.00
2024-01-28T10:05:40.559Z,100.00
2024-01-28T10:08:09.357Z,100.00
2024-01-28T10:10:37.996Z,100.00
2024-01-28T10:13:07.980Z,100.00
2024-01-28T10:15:36.430Z,100.00
2024-01-28T10:18:07.607Z,100.00
2024-01-28T10:20:36.393Z,100.00
2024-01-28T10:23:05.282Z,100.00
2024-01-28T10:25:36.156Z,100.00
2024-01-28T10:28:05.760Z,100.00
2024-01-28T10:30:35.892Z,100.00
2024-01-28T10:33:04.824Z,100.00
2024-01-28T10:35:37.153Z,100.00
2024-01-28T10:38:08.015Z,100.00
2024-01-28T10:40:40.483Z,100.00
2024-01-28T10:43:12.550Z,100.00
2024-01-28T10:45:43.516Z,100.00
2024-01-28T10:48:19.841Z,100.00
2024-01-28T10:50:48.646Z,100.00
2024-01-28T10:53:17.517Z,100.00
2024-01-28T10:55:46.488Z,100.00
2024-01-28T10:58:17.365Z,100.00
2024-01-28T11:00:49.166Z,100.00
2024-01-28T11:03:19.667Z,100.00
2024-01-28T11:05:49.035Z,99.99
2024-01-28T11:08:18.525Z,99.89
2024-01-28T11:10:48.240Z,99.88
2024-01-28T11:13:16.537Z,99.93
2024-01-28T11:15:46.502Z,99.94
2024-01-28T11:18:20.948Z,99.97
2024-01-28T11:20:50.258Z,99.95
2024-01-28T11:23:21.342Z,100.00
2024-01-28T11:25:53.348Z,99.84
2024-01-28T11:28:24.332Z,99.70
2024-01-28T11:30:59.973Z,99.86
2024-01-28T11:33:37.321Z,99.89
2024-01-28T11:36:08.130Z,99.96
2024-01-28T11:38:41.910Z,99.98
2024-01-28T11:41:12.480Z,99.80
2024-01-28T11:43:40.881Z,99.47
2024-01-28T11:46:13.112Z,99.62
2024-01-28T11:48:45.012Z,99.64
2024-01-28T11:51:16.405Z,99.67
2024-01-28T11:53:47.766Z,99.50
2024-01-28T11:56:19.196Z,99.54
2024-01-28T11:58:48.333Z,99.57
2024-01-28T12:01:24.908Z,99.47
2024-01-28T12:03:56.722Z,99.47
2024-01-28T12:06:32.034Z,99.65
2024-01-28T12:09:01.767Z,99.81
2024-01-28T12:11:32.536Z,99.99
2024-01-28T12:14:07.275Z,99.85
2024-01-28T12:16:36.277Z,99.60
2024-01-28T12:19:07.401Z,99.57
2024-01-28T12:21:36.088Z,99.58
2024-01-28T12:24:09.876Z,99.37
2024-01-28T12:26:43.129Z,99.59
2024-01-28T12:29:16.044Z,99.58
2024-01-28T12:31:44.880Z,99.77
2024-01-28T12:34:19.893Z,99.96
2024-01-28T12:36:49.502Z,99.89
2024-01-28T12:39:22.001Z,99.84
2024-01-28T12:41:52.262Z,99.91
2024-01-28T12:44:23.734Z,99.97
2024-01-28T12:46:52.220Z,99.92
2024-01-28T12:49:20.977Z,99.91
2024-01-28T12:51:52.438Z,99.93
2024-01-28T12:54:31.185Z,99.92
2024-01-28T12:57:00.735Z,100.00
2024-01-28T12:59:31.928Z,99.80
2024-01-28T13:02:00.288Z,99.79
2024-01-28T13:04:29.328Z,99.92
2024-01-28T13:07:03.838Z,100.00
2024-01-28T13:09:33.206Z,99.93
2024-01-28T13:12:05.070Z,99.77
2024-01-28T13:14:40.194Z,99.44
2024-01-28T13:17:12.776Z,99.33
2024-01-28T13:19:44.934Z,99.51
2024-01-28T13:22:16.770Z,99.43
2024-01-28T13:24:53.019Z,99.60
2024-01-28T13:27:24.166Z,99.78
2024-01-28T13:30:00.761Z,99.76
2024-01-28T13:32:32.631Z,99.74
2024-01-28T13:35:10.069Z,99.80
2024-01-28T13:37:41.710Z,99.89
2024-01-28T13:40:12.988Z,99.83
2024-01-28T13:42:44.781Z,99.77
2024-01-28T13:45:16.440Z,99.83
2024-01-28T13:47:47.411Z,99.85
2024-01-28T13:50:17.613Z,99.95
2024-01-28T13:52:57.253Z,99.96
2024-01-28T13:55:28.969Z,99.94
2024-01-28T13:57:57.570Z,99.85
2024-01-28T14:00:28.915Z,99.99
2024-01-28T14:03:00.802Z,100.00
2024-01-28T14:05:39.736Z,100.00
2024-01-28T14:08:10.711Z,100.00
2024-01-28T14:10:41.107Z,100.00
2024-01-28T14:13:15.539Z,100.00
2024-01-28T14:15:44.823Z,100.00
2024-01-28T14:18:23.769Z,100.00
2024-01-28T14:20:52.324Z,100.00
2024-01-28T14:23:25.848Z,100.00
2024-01-28T14:25:58.777Z,100.00
2024-01-28T14:28:27.555Z,100.00
2024-01-28T14:30:58.105Z,100.00
2024-01-28T14:33:30.843Z,100.00
2024-01-28T14:36:00.764Z,100.00
2024-01-28T14:38:35.954Z,100.00
2024-01-28T14:41:05.404Z,100.00
2024-01-28T14:43:37.134Z,100.00
2024-01-28T14:46:09.390Z,100.00
2024-01-28T14:48:42.785Z,100.00
2024-01-28T14:51:12.914Z,100.00
2024-01-28T14:53:45.189Z,100.00
2024-01-28T14:56:17.217Z,100.00
2024-01-28T14:58:49.763Z,100.00
2024-01-28T15:01:23.385Z,100.00
2024-01-28T15:03:56.979Z,100.00
2024-01-28T15:06:29.329Z,100.00
2024-01-28T15:09:02.458Z,100.00
2024-01-28T15:11:32.243Z,100.00
2024-01-28T15:14:01.563Z,100.00
2024-01-28T15:16:33.805Z,100.00
2024-01-28T15:19:04.895Z,100.00
2024-01-28T15:21:35.483Z,99.99
2024-01-28T15:24:04.647Z,99.96
2024-01-28T15:26:44.253Z,99.92
2024-01-28T15:29:16.640Z,99.92
2024-01-28T15:31:49.051Z,99.92
2024-01-28T15:34:20.949Z,99.97
2024-01-28T15:36:52.105Z,99.98
2024-01-28T15:39:20.766Z,99.94
2024-01-28T15:41:52.679Z,100.00
2024-01-28T15:44:24.759Z,100.00
2024-01-28T15:46:59.338Z,99.94
2024-01-28T15:49:32.585Z,99.97
2024-01-28T15:52:09.557Z,99.90
2024-01-28T15:54:43.746Z,99.99
2024-01-28T15:57:14.211Z,99.84
2024-01-28T15:59:54.957Z,99.75
2024-01-28T16:02:37.590Z,99.79
2024-01-28T16:05:09.449Z,99.65
2024-01-28T16:07:40.436Z,99.59
2024-01-28T16:10:18.471Z,99.75
2024-01-28T16:12:56.561Z,99.63
2024-01-28T16:15:32.337Z,99.42
2024-01-28T16:18:06.959Z,99.32
2024-01-28T16:20:38.211Z,99.29
2024-01-28T16:23:13.448Z,99.24
2024-01-28T16:25:47.541Z,99.28
2024-01-28T16:28:18.460Z,99.41
2024-01-28T16:30:52.452Z,99.78
2024-01-28T16:33:28.885Z,99.90
2024-01-28T16:36:09.887Z,99.55
2024-01-28T16:38:40.862Z,99.45
2024-01-28T16:41:13.435Z,99.26
2024-01-28T16:43:47.400Z,99.56
2024-01-28T16:46:23.752Z,99.45
2024-01-28T16:51:55.856Z,99.70
2024-01-28T16:54:26.344Z,99.77
2024-01-28T16:57:18.021Z,99.80
2024-01-28T16:59:48.975Z,99.86
2024-01-28T17:02:26.441Z,99.87
2024-01-28T17:05:04.764Z,99.82
2024-01-28T17:07:39.935Z,99.92
2024-01-28T17:10:11.369Z,99.87
2024-01-28T17:12:43.974Z,99.89
2024-01-28T17:15:20.208Z,99.79
2024-01-28T17:17:56.021Z,99.77
2024-01-28T17:20:30.087Z,99.88
2024-01-28T17:23:03.720Z,99.96
2024-01-28T17:25:38.198Z,99.96
2024-01-28T17:28:13.074Z,99.85
2024-01-28T17:30:45.381Z,99.96
2024-01-28T17:33:16.996Z,99.91
2024-01-28T17:35:53.384Z,99.80
2024-01-28T17:38:27.727Z,99.93
2024-01-28T17:41:04.844Z,100.00
2024-01-28T17:43:37.364Z,99.68
2024-01-28T17:46:11.281Z,99.80
2024-01-28T17:48:47.573Z,99.84
2024-01-28T17:51:17.704Z,99.73
2024-01-28T17:53:47.746Z,99.67
2024-01-28T17:56:18.064Z,99.54
2024-01-28T17:58:48.224Z,99.35
2024-01-28T18:01:23.725Z,99.49
2024-01-28T18:03:52.634Z,99.79
2024-01-28T18:06:28.115Z,99.93
2024-01-28T18:09:04.234Z,99.90
2024-01-28T18:11:36.516Z,99.63
2024-01-28T18:14:21.478Z,99.53
2024-01-28T18:16:52.830Z,99.60
2024-01-28T18:19:24.499Z,99.65
2024-01-28T18:22:01.419Z,99.71
2024-01-28T18:24:37.249Z,99.81
2024-01-28T18:27:13.661Z,99.94
2024-01-28T18:29:45.855Z,99.99
2024-01-28T18:32:20.426Z,100.00
2024-01-28T18:34:50.712Z,100.00
2024-01-28T18:37:23.634Z,100.00
2024-01-28T18:40:06.147Z,100.00
2024-01-28T18:42:38.659Z,99.98
2024-01-28T18:45:22.135Z,100.00
2024-01-28T18:47:55.287Z,100.00
2024-01-28T18:50:44.759Z,100.00
2024-01-28T18:53:20.369Z,100.00
2024-01-28T18:55:55.161Z,99.90
2024-01-28T18:58:34.010Z,100.00
2024-01-28T19:01:05.504Z,100.00
2024-01-28T19:03:52.407Z,100.00
2024-01-28T19:06:53.268Z,100.00
2024-01-28T19:09:32.338Z,100.00
2024-01-28T19:12:09.835Z,100.00
2024-01-28T19:14:45.924Z,100.00
2024-01-28T19:17:23.581Z,100.00
2024-01-28T19:20:10.778Z,99.96
2024-01-28T19:22:41.377Z,99.75
2024-01-28T19:25:24.637Z,99.65
2024-01-28T19:28:00.280Z,99.32
2024-01-28T19:30:39.704Z,99.51
2024-01-28T19:33:17.778Z,99.73
2024-01-28T19:35:58.575Z,99.86
2024-01-28T19:38:37.365Z,99.55
2024-01-28T19:44:20.471Z,99.21
2024-01-28T19:47:08.163Z,99.43
2024-01-28T19:50:05.242Z,99.39
2024-01-28T19:52:43.403Z,99.35
2024-01-28T19:55:19.293Z,99.34
2024-01-28T19:57:50.417Z,99.62
2024-01-28T20:00:37.269Z,99.47
2024-01-28T20:03:15.528Z,99.15
2024-01-28T20:05:53.361Z,99.14
2024-01-28T20:08:33.008Z,99.17
2024-01-28T20:11:06.385Z,99.20
2024-01-28T20:13:45.868Z,99.25
2024-01-28T20:16:16.875Z,99.33
2024-01-28T20:18:48.521Z,99.32
2024-01-28T20:21:28.510Z,99.20
2024-01-28T20:24:12.481Z,98.97
2024-01-28T20:26:46.270Z,98.92
2024-01-28T20:29:21.700Z,98.90
2024-01-28T20:31:56.802Z,98.72
2024-01-28T20:34:29.891Z,98.68
2024-01-28T20:37:17.965Z,98.78
2024-01-28T20:39:50.109Z,98.96
2024-01-28T20:42:20.893Z,98.87
2024-01-28T20:44:56.479Z,98.89
2024-01-28T20:47:26.508Z,98.55
2024-01-28T20:50:00.478Z,98.69
2024-01-28T20:52:29.795Z,99.05
2024-01-28T20:55:08.150Z,98.97
2024-01-28T20:57:40.355Z,99.13
2024-01-28T21:00:17.920Z,99.13
2024-01-28T21:02:56.375Z,98.82
2024-01-28T21:05:35.672Z,98.64
2024-01-28T21:08:06.965Z,98.48
2024-01-28T21:10:45.310Z,98.63
2024-01-28T21:13:28.001Z,98.49
2024-01-28T21:16:14.643Z,98.29
2024-01-28T21:18:45.437Z,98.23
2024-01-28T21:21:16.469Z,98.32
2024-01-28T21:23:52.074Z,98.37
2024-01-28T21:26:25.024Z,98.44
2024-01-28T21:29:08.280Z,98.70
2024-01-28T21:31:40.879Z,98.77
2024-01-28T21:34:20.509Z,98.51
2024-01-28T21:36:50.902Z,98.77
2024-01-28T21:39:20.377Z,98.86
2024-01-28T21:42:01.406Z,98.92
2024-01-28T21:44:34.002Z,98.82
2024-01-28T21:47:06.566Z,98.40
2024-01-28T21:49:41.146Z,97.99
2024-01-28T21:52:13.622Z,98.04
2024-01-28T21:54:44.955Z,98.06
2024-01-28T21:57:19.963Z,98.63
2024-01-28T21:59:52.083Z,98.42
2024-01-28T22:02:23.438Z,98.38
2024-01-28T22:04:54.528Z,98.48
2024-01-28T22:07:23.864Z,98.23
2024-01-28T22:09:53.356Z,98.04
2024-01-28T22:12:24.609Z,98.19
2024-01-28T22:14:54.530Z,98.27
2024-01-28T22:17:23.711Z,98.39
2024-01-28T22:19:52.285Z,98.10
2024-01-28T22:22:23.113Z,97.80
2024-01-28T22:24:52.415Z,97.96
2024-01-28T22:27:21.827Z,98.08
2024-01-28T22:29:53.749Z,98.23
2024-01-28T22:32:25.052Z,98.41
2024-01-28T22:34:53.645Z,98.22
2024-01-28T22:37:23.549Z,97.99
2024-01-28T22:39:52.038Z,98.16
2024-01-28T22:42:20.274Z,98.43
2024-01-28T22:44:48.133Z,98.35
2024-01-28T22:47:16.109Z,98.04
2024-01-28T22:49:44.096Z,97.68
2024-01-28T22:52:12.339Z,97.91
2024-01-28T22:54:40.452Z,97.89
2024-01-28T22:57:08.529Z,97.94
2024-01-28T22:59:36.526Z,97.93
2024-01-28T23:02:04.658Z,98.04
2024-01-28T23:04:32.937Z,98.01
2024-01-28T23:07:01.292Z,97.66
2024-01-28T23:09:29.394Z,97.54
2024-01-28T23:11:57.453Z,97.85
2024-01-28T23:14:25.786Z,97.55
2024-01-28T23:17:08.882Z,97.65
2024-01-28T23:19:37.021Z,97.84
2024-01-28T23:22:05.114Z,97.80
2024-01-28T23:24:33.215Z,97.70
2024-01-28T23:27:01.419Z,97.52
2024-01-28T23:29:30.687Z,97.73
2024-01-28T23:31:59.213Z,97.75
2024-01-28T23:34:27.257Z,97.78
2024-01-28T23:36:55.280Z,97.46
2024-01-28T23:39:23.196Z,97.40
2024-01-28T23:41:51.098Z,97.10
2024-01-28T23:44:19.638Z,97.38
2024-01-28T23:46:47.554Z,97.43
2024-01-28T23:49:15.575Z,97.35
2024-01-28T23:51:47.532Z,97.34
2024-01-28T23:54:18.924Z,97.25
2024-01-28T23:56:46.838Z,97.26
2024-01-28T23:59:14.821Z,97.25
